Rotan, Texas
Current Conditions -  °F | °C
As of 5:55 AM on Thursday 23 Oct 2014 (Local Time) from KSWW Reporting Station
Overcast Overcast  
Wind Chill: 17°   Ceiling: 4600
Heat Index: 17°   Visibility: 10mi
Dew Point: 14°   Wind: 5mph
Humidity: 84%   Direction: 190°S
Pressure: 30.16"   Gusts: NA
Location:  32.85°N, 100.47°W
Report Text: KSWW 231055Z AUTO 19004KT 10SM OVC046 17/14 A3016 RMK AO2 T01670140
Loading
Personal Weather Stations






























Interactive Weather Map
Tropical Storm Tracking
New forecast layout! Learn more

10-Day Weather Forecast

Advertisements
Track Severe Weather on mobile